Marion, TX (78124)

6:30 AM CST on February 06, 2016 (GMT -0600)
Marion | | Change Station
CLOSE
Current Station
Personal Weather Station
Location: Seguin, TX
Elevation: 656 ft
Nearby Weather Stations

Elev 656 ft 29.55 °N, 98.13 °W | Updated 11 seconds ago

Clear
Clear
40.1 °F
Feels Like 40 °F
N
0.0
Wind Variable Wind from West
Gusts 1.0 mph

Today
High -- | Low -- °F
--% Chance of Precip.
Yesterday
High -- | Low -- °F
Precip. -- in
Pressure 30.32 in
Visibility 10.0 miles
Clouds Clear
Windchill 40 °F
Dew Point 37 °F
Humidity 89%
Rainfall 0.11 in
Snow Depth Not available.
7:19 AM 6:14 PM
Waning Crescent, 6% visible
METAR KRND 061158Z AUTO 32010KT 10SM CLR 06/M01 A3032 RMK AO2 SLP268 60000 T00601006 10090 20052 58002
Pressure 30.32 in
Visibility 10.0 miles
Clouds Clear
Windchill 40 °F
Dew Point 37 °F
Humidity 89%
Rainfall 0.11 in
Snow Depth Not available.
7:19 AM 6:14 PM
Waning Crescent, 6% visible
METAR KRND 061158Z AUTO 32010KT 10SM CLR 06/M01 A3032 RMK AO2 SLP268 60000 T00601006 10090 20052 58002

10-Day Weather Forecast

Almanac

Astronomy

Feb. 06, 2016 Rise Set
Actual Time
Civil Twilight
Nautical Twilight
Astronomical Twilight
Moon
Length of Visible Light
Length of Day
Tomorrow will be .
, % of the Moon is Illuminated

Today's Extremes

State Highs State Lows

Community

WunderPhotos

Upload Photos

1,890,944 photos uploaded!

WunderBlog® & News

Nearby

Air Quality

  Air Quality AQ Index Pollutant
Not available.

Snow Depth

Station Depth Elevation

Earthquake Activity

City Distance Mag. Time & Date
Minimum magnitude displayed is 2.5.

Coastal Water Temperatures

Place Temperature

Stations

Nearby Weather Stations

Station Location Temp. Windchill Dew Point Humidity Wind Precip. Elev Updated Type
                   

Watches & Warnings

There are currently no watches in effect.